Terminal Aerodrome Forecast
Issued by NWS

Home | Current Version | Previous Version | Text Only | Print | Product List | Glossary On
Versions: 1 2 3 4 5 6 7 8 9 10 11 12 13 14
000
FTUS44 KSJT 301100
TAFSOA
TAF
KSOA 301120Z 3012/3112 17005KT P6SM SCT200
     FM301500 18012G17KT P6SM SCT090
     FM310100 17008KT P6SM FEW250=

USA.gov is the U.S. government's official web portal to all federal, state and local government web resources and services.